Data for 02/06/2016

Time Sea-Level Adjusted Pressure Absolute Pressure Temperature Relative Humidity Dew Point   
(mb) (inHg) (mb) (inHg) (C) (F) (%) (C) (F)
00:05 1023 30.21 853 25.19 -2.4 27.7 62 -8.7 16.4
00:10 1023 30.21 853 25.19 -2.2 28.1 62 -8.5 16.7
00:15 1023 30.21 853 25.19 -2.5 27.6 63 -8.5 16.7
00:20 1023 30.21 853 25.19 -2.7 27.1 64 -8.7 16.3
00:25 1023 30.21 852 25.16 -2.6 27.4 63 -8.6 16.5
00:30 1023 30.21 852 25.16 -2.3 27.9 61 -8.8 16.2
00:35 1023 30.21 852 25.16 -2 28.4 61 -8.6 16.6
00:40 1023 30.21 852 25.16 -2.1 28.3 61 -8.7 16.4
00:45 1023 30.21 852 25.16 -2.3 27.9 62 -8.6 16.4
00:50 1023 30.21 852 25.16 -2.3 27.8 62 -8.7 16.3
00:55 1023 30.21 852 25.16 -2.3 27.8 61 -8.9 16
01:00 1023 30.21 852 25.16 -2.1 28.2 60 -8.8 16.2
01:05 1023 30.21 852 25.16 -2 28.5 60 -8.7 16.3
01:10 1023 30.21 852 25.16 -1.9 28.6 59 -8.8 16.2
01:15 1023 30.21 852 25.16 -2.1 28.3 60 -8.8 16.1
01:20 1022 30.18 852 25.16 -1.9 28.5 59 -9 15.8
01:25 1022 30.18 852 25.16 -1.6 29.1 58 -8.9 16
01:30 1022 30.18 851 25.13 -1.5 29.3 57 -8.9 15.9
01:35 1022 30.18 851 25.13 -1.4 29.4 57 -8.9 16
01:40 1022 30.18 851 25.13 -1.4 29.4 57 -8.9 15.9
01:45 1022 30.18 851 25.13 -1.3 29.7 57 -8.8 16.1
01:50 1022 30.18 851 25.13 -1.4 29.5 57 -8.9 16
01:55 1022 30.18 851 25.13 -1.4 29.5 56 -9 15.9
02:00 1022 30.18 851 25.13 -1.4 29.5 57 -8.9 16
02:05 1022 30.18 851 25.13 -1.5 29.3 57 -8.9 15.9
02:10 1022 30.18 851 25.13 -1.7 28.9 57 -9.1 15.7
02:15 1022 30.18 851 25.13 -1.6 29.1 57 -9 15.8
02:20 1022 30.18 851 25.13 -1.5 29.3 57 -9 15.8
02:25 1022 30.18 851 25.13 -1.3 29.6 56 -8.9 15.9
02:30 1022 30.18 851 25.13 -1.3 29.6 57 -8.9 16
02:35 1022 30.18 851 25.13 -1.4 29.5 56 -9 15.8
02:40 1022 30.18 851 25.13 -1.4 29.5 56 -9 15.8
02:45 1022 30.18 851 25.13 -1.4 29.4 57 -9 15.8
02:50 1022 30.18 851 25.13 -1.6 29 58 -8.9 15.9
02:55 1022 30.18 851 25.13 -1.6 29.1 57 -9.1 15.7
03:00 1022 30.18 851 25.13 -1.7 29 58 -8.9 16
03:05 1022 30.18 851 25.13 -2.4 27.8 61 -8.9 15.9
03:10 1022 30.18 851 25.13 -2.7 27.1 63 -8.9 16
03:15 1022 30.18 851 25.13 -3.1 26.4 63 -9.1 15.6
03:20 1022 30.18 851 25.13 -3 26.6 63 -9.1 15.5
03:25 1022 30.18 851 25.13 -2.4 27.7 60 -9.2 15.4
03:30 1022 30.18 851 25.13 -1.8 28.8 58 -9.1 15.7
03:35 1022 30.18 851 25.13 -2 28.5 59 -8.9 16
03:40 1022 30.18 851 25.13 -2.3 27.9 60 -9.1 15.6
03:45 1022 30.18 851 25.13 -2 28.3 59 -9 15.7
03:50 1022 30.18 851 25.13 -2.2 28 60 -8.9 16
03:55 1022 30.18 851 25.13 -2.5 27.6 61 -9.1 15.7
04:00 1021 30.15 851 25.13 -2.3 27.9 60 -9.1 15.6
04:05 1021 30.15 851 25.13 -2.3 27.9 60 -9 15.8
04:10 1021 30.15 851 25.13 -2.1 28.3 59 -9.1 15.6
04:15 1021 30.15 851 25.13 -1.9 28.6 58 -9 15.8
04:20 1021 30.15 851 25.13 -2.1 28.3 58 -9.2 15.5
04:25 1021 30.15 850 25.1 -1.9 28.6 58 -9.1 15.6
04:30 1021 30.15 850 25.1 -1.8 28.7 57 -9.1 15.5
04:35 1021 30.15 850 25.1 -1.7 28.9 57 -9.2 15.5
04:40 1021 30.15 850 25.1 -2 28.4 58 -9.1 15.6
04:45 1021 30.15 850 25.1 -2.2 28 59 -9.2 15.4
04:50 1021 30.15 850 25.1 -2.3 27.8 60 -9.2 15.5
04:55 1021 30.15 850 25.1 -2 28.4 58 -9.2 15.5
05:00 1021 30.15 850 25.1 -1.8 28.7 58 -9 15.8
05:05 1021 30.15 850 25.1 -2.1 28.2 60 -8.9 16
05:10 1021 30.15 850 25.1 -2.4 27.6 60 -9.2 15.5
05:15 1021 30.15 850 25.1 -2.5 27.5 60 -9.2 15.5
05:20 1021 30.15 850 25.1 -2 28.4 57 -9.3 15.2
05:25 1021 30.15 850 25.1 -1.6 29.2 57 -9 15.9
05:30 1021 30.15 850 25.1 -1.9 28.7 58 -9 15.8
05:35 1021 30.15 850 25.1 -1.9 28.5 57 -9.3 15.2
05:40 1021 30.15 850 25.1 -1.8 28.8 55 -9.7 14.6
05:45 1021 30.15 850 25.1 -1.2 29.8 56 -8.9 16
05:50 1021 30.15 850 25.1 -0.5 31.1 53 -9 15.9
05:55 1021 30.15 850 25.1 -1.1 30.1 56 -8.8 16.2
06:00 1021 30.15 850 25.1 -1.3 29.6 55 -9.1 15.6
06:05 1021 30.15 850 25.1 -1.6 29.1 58 -8.9 15.9
06:10 1021 30.15 850 25.1 -1.5 29.3 57 -9 15.8
06:15 1021 30.15 850 25.1 -1.3 29.7 56 -9 15.8
06:20 1021 30.15 850 25.1 -1.2 29.8 56 -8.9 15.9
06:25 1021 30.15 850 25.1 -0.9 30.3 55 -8.8 16.2
06:30 1021 30.15 850 25.1 -1.1 30 56 -8.8 16.2
06:35 1021 30.15 850 25.1 -1.1 30 54 -9.2 15.5
06:40 1021 30.15 850 25.1 -0.6 31 52 -9.1 15.6
06:45 1021 30.15 850 25.1 -0.4 31.2 53 -8.8 16.1
06:50 1021 30.15 850 25.1 -0.6 30.9 54 -8.8 16.2
06:55 1021 30.15 850 25.1 -1 30.2 55 -8.8 16.1
07:00 1020 30.12 850 25.1 -1.1 30 56 -8.7 16.3
07:05 1020 30.12 849 25.07 -1.6 29.2 59 -8.6 16.5
07:10 1020 30.12 849 25.07 -1.6 29.1 56 -9.3 15.3
07:15 1020 30.12 849 25.07 -1.1 30 55 -9.1 15.5
07:20 1020 30.12 849 25.07 -0.9 30.4 52 -9.5 14.9
07:25 1020 30.12 849 25.07 0 32 48 -9.8 14.3
07:30 1020 30.12 849 25.07 -0.1 31.9 53 -8.5 16.7
07:35 1019 30.09 848 25.04 -0.8 30.5 51 -9.7 14.6
07:40 1019 30.09 848 25.04 -0.2 31.7 49 -9.6 14.7
07:45 1019 30.09 848 25.04 0.5 32.8 47 -9.7 14.6
07:50 1019 30.09 848 25.04 0.5 33 47 -9.5 14.9
07:55 1019 30.09 848 25.04 1.3 34.3 44 -9.7 14.5
08:00 1019 30.09 848 25.04 2.8 37 39 -9.8 14.4
08:05 1019 30.09 848 25.04 3.8 38.8 37 -9.6 14.6
08:10 1018 30.06 848 25.04 4.6 40.2 35 -9.7 14.6
08:15 1018 30.06 847 25.01 5 41 35 -9.2 15.5
08:20 1018 30.06 847 25.01 4.9 40.8 36 -9 15.8
08:25 1018 30.06 847 25.01 4.8 40.7 37 -8.8 16.1
08:30 1018 30.06 847 25.01 5 41 35 -9.2 15.4
08:35 1018 30.06 847 25.01 5.5 41.8 35 -8.7 16.3
08:40 1018 30.06 847 25.01 5.2 41.3 38 -8 17.6
08:45 1017 30.03 847 25.01 4.7 40.4 41 -7.6 18.3
08:50 1018 30.06 847 25.01 4.5 40.1 41 -7.7 18.2
08:55 1018 30.06 847 25.01 4.9 40.9 38 -8.1 17.4
09:00 1018 30.06 847 25.01 5.4 41.7 38 -7.9 17.8
09:05 1018 30.06 847 25.01 5.5 41.8 38 -7.9 17.8
09:10 1018 30.06 847 25.01 5.6 42 36 -8.4 16.8
09:15 1018 30.06 847 25.01 5.6 42.2 35 -8.5 16.7
09:20 1018 30.06 847 25.01 5.7 42.2 34 -9.1 15.6
09:25 1018 30.06 847 25.01 5.9 42.7 33 -9 15.8
09:30 1018 30.06 847 25.01 5.9 42.7 34 -8.9 16.1
09:35 1018 30.06 847 25.01 5.9 42.6 33 -9.1 15.5
09:40 1018 30.06 847 25.01 5.8 42.5 34 -8.8 16.1
09:45 1018 30.06 847 25.01 5.8 42.4 33 -9.3 15.3
09:50 1018 30.06 848 25.04 5.8 42.4 34 -9.1 15.7
09:55 1018 30.06 848 25.04 5.7 42.2 35 -8.7 16.4
10:00 1018 30.06 848 25.04 5.5 41.9 36 -8.4 16.8
10:05 1019 30.09 848 25.04 5.4 41.6 35 -8.7 16.3
10:10 1018 30.06 848 25.04 5.4 41.7 35 -8.9 15.9
10:15 1018 30.06 848 25.04 5.6 42 35 -8.9 16
10:20 1019 30.09 848 25.04 5.4 41.7 36 -8.6 16.5
10:25 1019 30.09 848 25.04 5.2 41.3 36 -8.7 16.4
10:30 1019 30.09 848 25.04 5.1 41.1 36 -8.9 16
10:35 1019 30.09 848 25.04 5 40.9 37 -8.5 16.7
10:40 1019 30.09 848 25.04 4.9 40.8 37 -8.8 16.2
10:45 1019 30.09 848 25.04 4.7 40.5 36 -9 15.9
10:50 1019 30.09 848 25.04 4.8 40.6 37 -8.7 16.4
10:55 1019 30.09 848 25.04 5 41.1 36 -8.8 16.1
11:00 1019 30.09 848 25.04 5.1 41.2 35 -9.1 15.6
11:05 1019 30.09 849 25.07 5.1 41.1 37 -8.5 16.8
11:10 1019 30.09 849 25.07 5 41 36 -8.8 16.2
11:15 1019 30.09 849 25.07 5.3 41.5 35 -8.9 15.9
11:20 1019 30.09 849 25.07 5.5 41.8 35 -8.8 16.2
11:25 1020 30.12 849 25.07 5.4 41.7 36 -8.5 16.6
11:30 1020 30.12 849 25.07 5.3 41.5 38 -7.9 17.8
11:35 1020 30.12 849 25.07 5.1 41.3 38 -8.1 17.4
11:40 1020 30.12 849 25.07 5.3 41.5 39 -7.7 18.1
11:45 1020 30.12 849 25.07 5.3 41.6 39 -7.7 18.2
11:50 1020 30.12 849 25.07 5.3 41.6 38 -7.8 17.9
11:55 1020 30.12 849 25.07 5.4 41.7 38 -7.8 18
12:00 1020 30.12 849 25.07 5.6 42.1 37 -7.9 17.8
12:05 1020 30.12 849 25.07 5.6 42.1 38 -7.7 18.1
12:10 1020 30.12 849 25.07 5.5 42 36 -8.3 17.1
12:15 1020 30.12 849 25.07 5.6 42 36 -8.5 16.8
12:20 1020 30.12 849 25.07 5.7 42.3 36 -8.1 17.4
12:25 1020 30.12 849 25.07 5.7 42.3 38 -7.5 18.6
12:30 1020 30.12 849 25.07 5.5 41.8 38 -7.6 18.3
12:35 1020 30.12 849 25.07 5.4 41.7 40 -7.1 19.2
12:40 1020 30.12 849 25.07 5.4 41.7 40 -7.1 19.1
12:45 1021 30.15 850 25.1 5.5 41.8 43 -6 21.2
12:50 1021 30.15 850 25.1 4.3 39.8 57 -3.5 25.7
12:55 1021 30.15 850 25.1 3.1 37.6 60 -3.8 25.1
13:00 1021 30.15 850 25.1 2.9 37.3 62 -3.7 25.4
13:05 1021 30.15 850 25.1 2.6 36.8 64 -3.5 25.7
13:10 1021 30.15 850 25.1 2.3 36.1 68 -3 26.5
13:15 1021 30.15 850 25.1 2 35.5 69 -3.1 26.5
13:20 1021 30.15 850 25.1 1.7 35.1 71 -3.1 26.5
13:25 1021 30.15 850 25.1 1.7 35 71 -3.1 26.5
13:30 1021 30.15 850 25.1 1.5 34.7 71 -3.2 26.2
13:35 1021 30.15 850 25.1 1.5 34.7 68 -3.8 25.2
13:40 1021 30.15 851 25.13 1.5 34.7 67 -4 24.8
13:45 1021 30.15 851 25.13 1.5 34.7 66 -4.2 24.5
13:50 1022 30.18 851 25.13 1.6 34.8 65 -4.4 24.2
13:55 1021 30.15 851 25.13 1.6 34.9 63 -4.6 23.7
14:00 1021 30.15 851 25.13 1.6 34.9 62 -5 23.1
14:05 1021 30.15 851 25.13 1.7 35 60 -5.2 22.6
14:10 1021 30.15 851 25.13 1.7 35.1 59 -5.5 22.2
14:15 1022 30.18 851 25.13 1.8 35.2 58 -5.5 22.1
14:20 1022 30.18 851 25.13 1.8 35.3 58 -5.6 22
14:25 1022 30.18 851 25.13 1.8 35.3 58 -5.6 21.9
14:30 1022 30.18 851 25.13 1.8 35.3 57 -5.8 21.6
14:35 1021 30.15 851 25.13 1.9 35.4 57 -5.7 21.8
14:40 1021 30.15 851 25.13 2 35.5 58 -5.4 22.2
14:45 1021 30.15 851 25.13 2 35.6 58 -5.4 22.3
14:50 1021 30.15 851 25.13 2.1 35.7 58 -5.5 22.2
14:55 1021 30.15 851 25.13 2.1 35.8 57 -5.4 22.2
15:00 1021 30.15 851 25.13 2.3 36.1 57 -5.4 22.2
15:05 1022 30.18 851 25.13 2.4 36.3 56 -5.4 22.2
15:10 1022 30.18 851 25.13 2.4 36.3 56 -5.5 22.1
15:15 1022 30.18 851 25.13 2.4 36.3 56 -5.5 22.1
15:20 1021 30.15 851 25.13 2.1 35.8 59 -5 23
15:25 1021 30.15 851 25.13 1.7 35.1 62 -4.7 23.6
15:30 1021 30.15 851 25.13 1.6 34.9 62 -4.8 23.4
15:35 1021 30.15 850 25.1 1.6 34.9 61 -5.1 22.8
15:40 1021 30.15 850 25.1 1.7 35.1 60 -5.1 22.7
15:45 1021 30.15 850 25.1 1.8 35.2 60 -5.2 22.7
15:50 1021 30.15 850 25.1 1.9 35.4 59 -5.3 22.4
15:55 1021 30.15 850 25.1 2 35.7 56 -5.7 21.7
16:00 1021 30.15 850 25.1 2.2 36 56 -5.6 21.9
16:05 1021 30.15 850 25.1 2.4 36.3 54 -6 21.2
16:10 1021 30.15 850 25.1 2.4 36.4 55 -5.7 21.7
16:15 1021 30.15 850 25.1 2.4 36.4 55 -5.7 21.7
16:20 1021 30.15 850 25.1 2.5 36.5 53 -6 21.1
16:25 1021 30.15 850 25.1 2.4 36.3 54 -6.1 21.1
16:30 1021 30.15 850 25.1 2.4 36.4 53 -6.2 20.8
16:35 1021 30.15 850 25.1 2.5 36.4 52 -6.5 20.3
16:40 1021 30.15 850 25.1 2.5 36.6 52 -6.3 20.6
16:45 1021 30.15 850 25.1 2.6 36.7 50 -6.9 19.6
16:50 1021 30.15 851 25.13 2.6 36.6 50 -6.7 19.9
16:55 1021 30.15 851 25.13 2.5 36.6 51 -6.5 20.3
17:00 1021 30.15 851 25.13 2.6 36.7 50 -6.9 19.6
17:05 1022 30.18 851 25.13 2.7 36.8 50 -6.7 20
17:10 1022 30.18 851 25.13 2.7 36.8 51 -6.4 20.5
17:15 1022 30.18 851 25.13 2.6 36.7 48 -7.4 18.7
17:20 1022 30.18 851 25.13 2.8 37 46 -7.7 18.1
17:25 1022 30.18 851 25.13 2.9 37.1 44 -8.3 17.1
17:30 1021 30.15 851 25.13 3 37.4 42 -8.7 16.3
17:35 1021 30.15 851 25.13 3 37.4 42 -8.8 16.2
17:40 1022 30.18 851 25.13 3 37.4 43 -8.4 16.8
17:45 1022 30.18 851 25.13 2.9 37.2 43 -8.3 17
17:50 1022 30.18 851 25.13 2.7 36.9 45 -8 17.6
17:55 1022 30.18 851 25.13 2.6 36.7 45 -8.1 17.5
18:00 1022 30.18 851 25.13 2.5 36.5 46 -8 17.5
18:05 1022 30.18 851 25.13 2.5 36.4 46 -8 17.5
18:10 1022 30.18 851 25.13 2.4 36.4 43 -8.9 16
18:15 1022 30.18 851 25.13 2.5 36.4 45 -8.4 16.8
18:20 1022 30.18 851 25.13 2.4 36.4 44 -8.7 16.3
18:25 1022 30.18 851 25.13 2.4 36.3 44 -8.7 16.3
18:30 1022 30.18 851 25.13 2.4 36.4 44 -8.7 16.3
18:35 1022 30.18 851 25.13 2.4 36.3 46 -8.1 17.4
18:40 1022 30.18 851 25.13 2.3 36.1 42 -9.5 14.9
18:45 1022 30.18 851 25.13 2.3 36.1 41 -9.7 14.5
18:50 1022 30.18 851 25.13 2.3 36.1 42 -9.4 15.1
18:55 1022 30.18 852 25.16 2.2 36 40 -10.2 13.7
19:00 1023 30.21 852 25.16 2.3 36.1 39 -10.2 13.6
19:05 1023 30.21 852 25.16 2.3 36.1 39 -10.3 13.5
19:10 1023 30.21 852 25.16 2.3 36.1 40 -10.1 13.9
19:15 1023 30.21 852 25.16 2.2 35.9 40 -10.2 13.7
19:20 1023 30.21 852 25.16 2.1 35.7 40 -10.1 13.8
19:25 1023 30.21 852 25.16 2 35.6 41 -9.9 14.1
19:30 1023 30.21 852 25.16 1.9 35.5 43 -9.4 15.1
19:35 1023 30.21 852 25.16 1.8 35.3 42 -9.8 14.4
19:40 1023 30.21 852 25.16 1.7 35.1 43 -9.6 14.8
19:45 1023 30.21 852 25.16 1.5 34.7 41 -10.3 13.4
19:50 1023 30.21 852 25.16 1.5 34.7 42 -10.1 13.8
19:55 1023 30.21 852 25.16 1.4 34.6 43 -9.9 14.2
20:00 1023 30.21 852 25.16 1.2 34.1 50 -8.2 17.3
20:05 1023 30.21 852 25.16 0.8 33.4 48 -9 15.8
20:10 1023 30.21 852 25.16 0.9 33.7 45 -9.7 14.6
20:15 1023 30.21 852 25.16 1.1 33.9 45 -9.5 14.9
20:20 1023 30.21 852 25.16 1.1 34 48 -8.7 16.3
20:25 1023 30.21 852 25.16 1 33.8 48 -8.9 16
20:30 1023 30.21 852 25.16 0.9 33.6 46 -9.5 14.9
20:35 1023 30.21 852 25.16 1 33.8 48 -8.8 16.2
20:40 1023 30.21 852 25.16 1 33.7 48 -9 15.8
20:45 1023 30.21 852 25.16 0.8 33.4 49 -8.9 16.1
20:50 1023 30.21 852 25.16 0.8 33.5 46 -9.6 14.7
20:55 1023 30.21 852 25.16 1.1 34.1 47 -8.8 16.1
21:00 1023 30.21 852 25.16 1 33.8 49 -8.6 16.6
21:05 1023 30.21 852 25.16 0.8 33.5 47 -9.1 15.6
21:10 1023 30.21 852 25.16 0.9 33.6 51 -8.1 17.3
21:15 1023 30.21 852 25.16 0.8 33.4 49 -8.9 16
21:20 1023 30.21 852 25.16 0.9 33.6 48 -9 15.9
21:25 1023 30.21 852 25.16 1.1 34 46 -9.2 15.5
21:30 1023 30.21 852 25.16 1.2 34.2 47 -8.8 16.1
21:35 1023 30.21 852 25.16 1.2 34.2 44 -9.6 14.6
21:40 1023 30.21 852 25.16 1.4 34.5 45 -9.3 15.2
21:45 1023 30.21 852 25.16 1.4 34.5 46 -8.9 15.9
21:50 1023 30.21 853 25.19 1.3 34.4 46 -9 15.8
21:55 1023 30.21 853 25.19 1.2 34.2 47 -8.9 16
22:00 1023 30.21 853 25.19 1.1 34.1 48 -8.7 16.3
22:05 1023 30.21 853 25.19 1 33.8 48 -8.7 16.3
22:10 1024 30.24 853 25.19 0.9 33.6 46 -9.4 15.1
22:15 1024 30.24 853 25.19 1 33.7 45 -9.8 14.3
22:20 1024 30.24 853 25.19 1 33.8 44 -10.1 13.9
22:25 1024 30.24 853 25.19 0.9 33.7 42 -10.4 13.2
22:30 1024 30.24 853 25.19 0.9 33.6 43 -10.3 13.5
22:35 1024 30.24 853 25.19 0.8 33.4 44 -10.1 13.8
22:40 1024 30.24 853 25.19 0.6 33.1 43 -10.5 13.2
22:45 1024 30.24 853 25.19 0.5 33 45 -10.1 13.8
22:50 1024 30.24 853 25.19 0.4 32.8 46 -9.9 14.1
22:55 1024 30.24 853 25.19 0.3 32.6 46 -10.1 13.9
23:00 1024 30.24 854 25.22 0.2 32.4 48 -9.6 14.7
23:05 1024 30.24 854 25.22 0 32 49 -9.3 15.2
23:10 1025 30.27 854 25.22 -0.1 31.9 50 -9.4 15.2
23:15 1025 30.27 854 25.22 -0 32 49 -9.4 15
23:20 1025 30.27 854 25.22 0.1 32.2 49 -9.4 15.1
23:25 1025 30.27 854 25.22 0.1 32.3 49 -9.3 15.2
23:30 1025 30.27 854 25.22 0.2 32.3 50 -9.1 15.7
23:35 1025 30.27 854 25.22 0.2 32.3 50 -9.2 15.4
23:40 1025 30.27 854 25.22 -0 32 52 -8.8 16.1
23:45 1025 30.27 854 25.22 -0.5 31.2 53 -8.8 16.2
23:50 1025 30.27 854 25.22 -0.6 30.9 51 -9.6 14.7
23:55 1025 30.27 854 25.22 -0.4 31.3 50 -9.5 14.9
24:00 1025 30.27 854 25.22 -0.2 31.6 50 -9.4 15.1